createdAt,value
2022-12-19T00:00:00.158Z,20.6
2022-12-19T00:05:24.691Z,20.6
2022-12-19T00:10:52.763Z,20.6
2022-12-19T00:16:35.777Z,20.6
2022-12-19T00:22:06.047Z,20.6
2022-12-19T00:27:51.879Z,20.6
2022-12-19T00:33:29.273Z,20.6
2022-12-19T00:39:13.626Z,20.6
2022-12-19T00:44:56.722Z,20.6
2022-12-19T00:50:22.967Z,20.6
2022-12-19T00:56:09.077Z,20.6
2022-12-19T01:01:45.515Z,20.6
2022-12-19T01:08:16.043Z,20.5
2022-12-19T01:14:02.825Z,20.5
2022-12-19T01:20:01.788Z,20.5
2022-12-19T01:26:01.738Z,20.5
2022-12-19T01:31:59.168Z,20.5
2022-12-19T01:37:40.260Z,20.5
2022-12-19T01:42:44.457Z,20.5
2022-12-19T01:48:16.953Z,20.5
2022-12-19T01:53:41.217Z,20.5
2022-12-19T01:59:23.321Z,20.4
2022-12-19T02:04:48.952Z,20.4
2022-12-19T02:10:46.773Z,20.4
2022-12-19T02:15:54.090Z,20.4
2022-12-19T02:21:36.289Z,20.4
2022-12-19T02:27:27.456Z,20.4
2022-12-19T02:33:18.280Z,20.4
2022-12-19T02:39:05.894Z,20.4
2022-12-19T02:44:38.621Z,20.4
2022-12-19T02:50:37.315Z,20.4
2022-12-19T02:56:16.634Z,20.4
2022-12-19T03:01:43.727Z,20.4
2022-12-19T03:07:38.675Z,20.4
2022-12-19T03:13:24.260Z,20.3
2022-12-19T03:19:02.681Z,20.4
2022-12-19T03:24:39.501Z,20.4
2022-12-19T03:30:17.187Z,20.4
2022-12-19T03:35:57.763Z,20.4
2022-12-19T03:41:20.921Z,20.4
2022-12-19T03:47:02.331Z,20.3
2022-12-19T03:52:44.571Z,20.3
2022-12-19T03:58:07.039Z,20.3
2022-12-19T04:03:45.928Z,20.3
2022-12-19T04:09:25.200Z,20.3
2022-12-19T04:15:03.003Z,20.3
2022-12-19T04:20:32.212Z,20.3
2022-12-19T04:26:00.827Z,20.3
2022-12-19T04:31:10.172Z,20.3
2022-12-19T04:36:49.531Z,20.3
2022-12-19T04:42:28.484Z,20.3
2022-12-19T04:48:12.182Z,20.3
2022-12-19T04:53:53.200Z,20.3
2022-12-19T04:59:32.368Z,20.3
2022-12-19T05:05:17.744Z,20.3
2022-12-19T05:10:56.451Z,20.3
2022-12-19T05:16:11.197Z,20.3
2022-12-19T05:21:35.060Z,20.3
2022-12-19T05:27:17.701Z,20.3
2022-12-19T05:32:57.224Z,20.3
2022-12-19T05:38:35.087Z,20.3
2022-12-19T05:44:14.777Z,20.3
2022-12-19T05:50:02.624Z,20.3
2022-12-19T05:55:44.368Z,20.3
2022-12-19T06:01:23.336Z,20.3
2022-12-19T06:07:03.984Z,20.2
2022-12-19T06:12:44.030Z,20.2
2022-12-19T06:18:14.686Z,20.2
2022-12-19T06:23:47.432Z,20.2
2022-12-19T06:29:28.720Z,20.2
2022-12-19T06:35:45.095Z,20.2
2022-12-19T06:41:27.153Z,20.1
2022-12-19T06:47:05.320Z,20.1
2022-12-19T06:52:28.600Z,20.1
2022-12-19T06:58:08.531Z,20.1
2022-12-19T07:03:49.622Z,20.1
2022-12-19T07:09:29.186Z,20.1
2022-12-19T07:15:10.052Z,20
2022-12-19T07:20:48.671Z,20
2022-12-19T07:26:27.351Z,20
2022-12-19T07:31:53.928Z,20
2022-12-19T07:37:05.422Z,20
2022-12-19T07:42:49.066Z,20
2022-12-19T07:48:13.372Z,20
2022-12-19T07:53:54.662Z,20
2022-12-19T07:59:38.761Z,19.9
2022-12-19T08:05:21.938Z,20
2022-12-19T08:10:45.374Z,19.9
2022-12-19T08:16:40.275Z,19.9
2022-12-19T08:22:49.056Z,19.9
2022-12-19T08:28:32.961Z,19.9
2022-12-19T08:34:13.654Z,19.9
2022-12-19T08:39:53.691Z,19.9
2022-12-19T08:45:36.871Z,19.9
2022-12-19T08:51:22.790Z,19.8
2022-12-19T08:57:08.570Z,19.8
2022-12-19T09:03:07.761Z,19.8
2022-12-19T09:11:10.171Z,19.8
2022-12-19T09:16:59.605Z,19.8
2022-12-19T09:23:02.326Z,19.8
2022-12-19T09:29:20.215Z,19.8
2022-12-19T09:35:10.567Z,19.8
2022-12-19T09:41:06.427Z,19.7
2022-12-19T09:46:57.213Z,19.7
2022-12-19T09:52:57.638Z,19.7
2022-12-19T09:58:32.314Z,19.7
2022-12-19T10:04:32.022Z,19.6
2022-12-19T10:16:33.844Z,19.7
2022-12-19T10:23:31.467Z,19.6
2022-12-19T10:29:46.439Z,19.6
2022-12-19T10:35:40.060Z,19.6
2022-12-19T10:42:33.859Z,19.7
2022-12-19T10:48:30.903Z,19.6
2022-12-19T10:54:18.081Z,19.6
2022-12-19T10:59:33.195Z,19.6
2022-12-19T11:05:27.414Z,19.6
2022-12-19T11:32:48.225Z,19.6
2022-12-19T11:38:33.981Z,19.6
2022-12-19T11:44:51.476Z,19.6
2022-12-19T11:50:39.029Z,19.6
2022-12-19T11:57:06.110Z,19.6
2022-12-19T12:02:46.729Z,19.6
